Callander, Canada
Current Conditions -  °F | °C
As of 4:00 AM on Friday 31 Oct 2014 (Local Time) from CYYB Reporting Station
Light Snow Light Snow  
Wind Chill: 23°   Ceiling: 4400
Heat Index: 30°   Visibility: 4mi
Dew Point: 28°   Wind: 8mph
Humidity: 93%   Direction: 70°ENE
Pressure: 29.98"   Gusts: NA
Location:  46.22°N, 79.36°W
Report Text: CYYB 310800Z AUTO 07007KT 4SM -SN OVC044 M01/M02 A2998 RMK SLP170
Loading
Personal Weather Stations






























Interactive Weather Map New forecast layout! Learn more

10-Day Weather Forecast

Advertisements
Track Severe Weather on mobile